sensor_id;sensor_type;location;lat;lon;timestamp;P1;durP1;ratioP1;P2;durP2;ratioP2
27939;SDS011;15275;51.716;14.324;2023-03-03T00:01:34;22.27;;;8.80;;
27939;SDS011;15275;51.716;14.324;2023-03-03T00:04:00;19.38;;;8.15;;
27939;SDS011;15275;51.716;14.324;2023-03-03T00:06:26;19.27;;;7.30;;
27939;SDS011;15275;51.716;14.324;2023-03-03T00:08:54;20.23;;;7.88;;
27939;SDS011;15275;51.716;14.324;2023-03-03T00:11:21;24.85;;;8.27;;
27939;SDS011;15275;51.716;14.324;2023-03-03T00:13:51;20.42;;;8.45;;
27939;SDS011;15275;51.716;14.324;2023-03-03T00:18:49;17.02;;;8.57;;
27939;SDS011;15275;51.716;14.324;2023-03-03T00:24:16;16.50;;;7.47;;
27939;SDS011;15275;51.716;14.324;2023-03-03T00:29:57;15.60;;;7.10;;
27939;SDS011;15275;51.716;14.324;2023-03-03T00:32:43;22.42;;;6.35;;
27939;SDS011;15275;51.716;14.324;2023-03-03T00:35:27;16.63;;;6.57;;
27939;SDS011;15275;51.716;14.324;2023-03-03T00:37:59;15.23;;;6.13;;
27939;SDS011;15275;51.716;14.324;2023-03-03T00:40:35;15.80;;;6.90;;
27939;SDS011;15275;51.716;14.324;2023-03-03T00:45:51;24.55;;;10.00;;
27939;SDS011;15275;51.716;14.324;2023-03-03T00:48:26;17.70;;;7.65;;
27939;SDS011;15275;51.716;14.324;2023-03-03T00:53:57;20.23;;;6.85;;
27939;SDS011;15275;51.716;14.324;2023-03-03T00:56:23;22.58;;;8.60;;
27939;SDS011;15275;51.716;14.324;2023-03-03T00:58:50;17.38;;;7.47;;
27939;SDS011;15275;51.716;14.324;2023-03-03T01:01:16;17.05;;;7.22;;
27939;SDS011;15275;51.716;14.324;2023-03-03T01:03:43;16.17;;;7.10;;
27939;SDS011;15275;51.716;14.324;2023-03-03T01:06:09;21.65;;;7.85;;
27939;SDS011;15275;51.716;14.324;2023-03-03T01:08:36;27.38;;;9.40;;
27939;SDS011;15275;51.716;14.324;2023-03-03T01:11:05;20.35;;;7.72;;
27939;SDS011;15275;51.716;14.324;2023-03-03T01:13:45;18.33;;;7.30;;
27939;SDS011;15275;51.716;14.324;2023-03-03T01:16:14;28.02;;;7.88;;
27939;SDS011;15275;51.716;14.324;2023-03-03T01:18:40;29.38;;;7.32;;
27939;SDS011;15275;51.716;14.324;2023-03-03T01:21:07;19.50;;;7.53;;
27939;SDS011;15275;51.716;14.324;2023-03-03T01:23:34;21.92;;;8.85;;
27939;SDS011;15275;51.716;14.324;2023-03-03T01:26:00;29.52;;;7.97;;
27939;SDS011;15275;51.716;14.324;2023-03-03T01:28:25;20.42;;;7.30;;
27939;SDS011;15275;51.716;14.324;2023-03-03T01:30:51;16.60;;;7.43;;
27939;SDS011;15275;51.716;14.324;2023-03-03T01:33:17;18.70;;;8.27;;
27939;SDS011;15275;51.716;14.324;2023-03-03T01:35:44;17.75;;;7.70;;
27939;SDS011;15275;51.716;14.324;2023-03-03T01:38:11;26.20;;;8.30;;
27939;SDS011;15275;51.716;14.324;2023-03-03T01:40:38;17.52;;;8.55;;
27939;SDS011;15275;51.716;14.324;2023-03-03T01:43:04;22.13;;;8.57;;
27939;SDS011;15275;51.716;14.324;2023-03-03T01:45:31;25.52;;;9.73;;
27939;SDS011;15275;51.716;14.324;2023-03-03T01:48:37;22.00;;;8.40;;
27939;SDS011;15275;51.716;14.324;2023-03-03T01:51:14;25.75;;;9.63;;
27939;SDS011;15275;51.716;14.324;2023-03-03T01:54:01;20.38;;;8.68;;
27939;SDS011;15275;51.716;14.324;2023-03-03T01:56:31;26.25;;;8.05;;
27939;SDS011;15275;51.716;14.324;2023-03-03T01:59:01;22.50;;;7.20;;
27939;SDS011;15275;51.716;14.324;2023-03-03T02:01:34;22.48;;;7.70;;
27939;SDS011;15275;51.716;14.324;2023-03-03T02:04:00;19.73;;;7.40;;
27939;SDS011;15275;51.716;14.324;2023-03-03T02:06:27;23.88;;;7.00;;
27939;SDS011;15275;51.716;14.324;2023-03-03T02:09:14;17.73;;;6.40;;
27939;SDS011;15275;51.716;14.324;2023-03-03T02:12:27;16.05;;;5.82;;
27939;SDS011;15275;51.716;14.324;2023-03-03T02:18:01;15.63;;;5.80;;
27939;SDS011;15275;51.716;14.324;2023-03-03T02:28:22;8.98;;;4.20;;
27939;SDS011;15275;51.716;14.324;2023-03-03T02:30:53;16.05;;;4.18;;
27939;SDS011;15275;51.716;14.324;2023-03-03T02:33:21;7.47;;;3.90;;
27939;SDS011;15275;51.716;14.324;2023-03-03T02:35:47;10.70;;;4.15;;
27939;SDS011;15275;51.716;14.324;2023-03-03T02:38:16;9.02;;;4.55;;
27939;SDS011;15275;51.716;14.324;2023-03-03T02:43:54;7.22;;;3.70;;
27939;SDS011;15275;51.716;14.324;2023-03-03T02:46:22;12.82;;;4.15;;
27939;SDS011;15275;51.716;14.324;2023-03-03T02:48:47;7.35;;;3.67;;
27939;SDS011;15275;51.716;14.324;2023-03-03T02:51:13;9.55;;;3.47;;
27939;SDS011;15275;51.716;14.324;2023-03-03T02:53:39;11.32;;;3.78;;
27939;SDS011;15275;51.716;14.324;2023-03-03T02:56:05;6.32;;;3.53;;
27939;SDS011;15275;51.716;14.324;2023-03-03T02:58:33;11.15;;;4.25;;
27939;SDS011;15275;51.716;14.324;2023-03-03T03:01:00;13.23;;;3.35;;
27939;SDS011;15275;51.716;14.324;2023-03-03T03:03:26;7.40;;;4.18;;
27939;SDS011;15275;51.716;14.324;2023-03-03T03:05:52;7.13;;;3.75;;
27939;SDS011;15275;51.716;14.324;2023-03-03T03:08:18;9.55;;;3.95;;
27939;SDS011;15275;51.716;14.324;2023-03-03T03:10:44;8.35;;;3.65;;
27939;SDS011;15275;51.716;14.324;2023-03-03T03:13:11;8.00;;;3.60;;
27939;SDS011;15275;51.716;14.324;2023-03-03T03:15:36;8.77;;;3.75;;
27939;SDS011;15275;51.716;14.324;2023-03-03T03:18:03;10.63;;;4.68;;
27939;SDS011;15275;51.716;14.324;2023-03-03T03:20:30;8.77;;;4.03;;
27939;SDS011;15275;51.716;14.324;2023-03-03T03:22:56;9.57;;;4.38;;
27939;SDS011;15275;51.716;14.324;2023-03-03T03:25:22;8.52;;;3.83;;
27939;SDS011;15275;51.716;14.324;2023-03-03T03:27:47;8.38;;;3.58;;
27939;SDS011;15275;51.716;14.324;2023-03-03T03:30:13;8.70;;;3.65;;
27939;SDS011;15275;51.716;14.324;2023-03-03T03:32:39;11.65;;;3.65;;
27939;SDS011;15275;51.716;14.324;2023-03-03T03:35:05;8.43;;;3.78;;
27939;SDS011;15275;51.716;14.324;2023-03-03T03:37:32;8.95;;;4.18;;
27939;SDS011;15275;51.716;14.324;2023-03-03T03:39:57;12.02;;;4.32;;
27939;SDS011;15275;51.716;14.324;2023-03-03T03:42:23;7.38;;;3.92;;
27939;SDS011;15275;51.716;14.324;2023-03-03T03:44:49;6.60;;;3.50;;
27939;SDS011;15275;51.716;14.324;2023-03-03T03:47:15;5.97;;;3.65;;
27939;SDS011;15275;51.716;14.324;2023-03-03T03:49:41;8.85;;;4.32;;
27939;SDS011;15275;51.716;14.324;2023-03-03T03:52:07;10.60;;;3.97;;
27939;SDS011;15275;51.716;14.324;2023-03-03T03:54:33;9.85;;;4.13;;
27939;SDS011;15275;51.716;14.324;2023-03-03T03:56:59;14.35;;;4.43;;
27939;SDS011;15275;51.716;14.324;2023-03-03T03:59:24;12.27;;;4.82;;
27939;SDS011;15275;51.716;14.324;2023-03-03T04:01:50;8.60;;;4.45;;
27939;SDS011;15275;51.716;14.324;2023-03-03T04:04:16;9.80;;;4.25;;
27939;SDS011;15275;51.716;14.324;2023-03-03T04:06:42;12.52;;;4.78;;
27939;SDS011;15275;51.716;14.324;2023-03-03T04:09:08;8.25;;;3.85;;
27939;SDS011;15275;51.716;14.324;2023-03-03T04:11:35;8.00;;;4.03;;
27939;SDS011;15275;51.716;14.324;2023-03-03T04:14:00;9.07;;;4.20;;
27939;SDS011;15275;51.716;14.324;2023-03-03T04:16:26;10.40;;;4.18;;
27939;SDS011;15275;51.716;14.324;2023-03-03T04:18:52;8.88;;;4.15;;
27939;SDS011;15275;51.716;14.324;2023-03-03T04:21:18;9.00;;;4.13;;
27939;SDS011;15275;51.716;14.324;2023-03-03T04:23:44;8.88;;;4.10;;
27939;SDS011;15275;51.716;14.324;2023-03-03T04:26:10;10.75;;;4.57;;
27939;SDS011;15275;51.716;14.324;2023-03-03T04:28:35;10.23;;;4.05;;
27939;SDS011;15275;51.716;14.324;2023-03-03T04:31:01;8.55;;;4.07;;
27939;SDS011;15275;51.716;14.324;2023-03-03T04:33:28;8.45;;;3.83;;
27939;SDS011;15275;51.716;14.324;2023-03-03T04:35:54;10.52;;;4.30;;
27939;SDS011;15275;51.716;14.324;2023-03-03T04:38:19;9.48;;;4.80;;
27939;SDS011;15275;51.716;14.324;2023-03-03T04:40:46;8.90;;;3.90;;
27939;SDS011;15275;51.716;14.324;2023-03-03T04:43:12;11.77;;;5.20;;
27939;SDS011;15275;51.716;14.324;2023-03-03T04:45:39;12.35;;;5.45;;
27939;SDS011;15275;51.716;14.324;2023-03-03T04:48:05;10.38;;;4.65;;
27939;SDS011;15275;51.716;14.324;2023-03-03T04:50:31;10.23;;;4.57;;
27939;SDS011;15275;51.716;14.324;2023-03-03T04:52:57;12.98;;;5.28;;
27939;SDS011;15275;51.716;14.324;2023-03-03T04:55:22;12.40;;;5.93;;
27939;SDS011;15275;51.716;14.324;2023-03-03T04:57:48;16.45;;;5.90;;
27939;SDS011;15275;51.716;14.324;2023-03-03T05:00:14;15.02;;;5.95;;
27939;SDS011;15275;51.716;14.324;2023-03-03T05:02:40;13.75;;;5.07;;
27939;SDS011;15275;51.716;14.324;2023-03-03T05:05:07;14.38;;;5.18;;
27939;SDS011;15275;51.716;14.324;2023-03-03T05:07:34;14.02;;;5.57;;
27939;SDS011;15275;51.716;14.324;2023-03-03T05:10:00;12.77;;;4.70;;
27939;SDS011;15275;51.716;14.324;2023-03-03T05:12:26;15.35;;;5.68;;
27939;SDS011;15275;51.716;14.324;2023-03-03T05:14:52;17.40;;;5.95;;
27939;SDS011;15275;51.716;14.324;2023-03-03T05:17:18;14.18;;;5.78;;
27939;SDS011;15275;51.716;14.324;2023-03-03T05:19:44;17.40;;;6.03;;
27939;SDS011;15275;51.716;14.324;2023-03-03T05:22:10;15.18;;;6.07;;
27939;SDS011;15275;51.716;14.324;2023-03-03T05:24:35;14.40;;;6.05;;
27939;SDS011;15275;51.716;14.324;2023-03-03T05:27:01;16.25;;;6.88;;
27939;SDS011;15275;51.716;14.324;2023-03-03T05:29:27;17.75;;;6.78;;
27939;SDS011;15275;51.716;14.324;2023-03-03T05:31:55;16.40;;;7.05;;
27939;SDS011;15275;51.716;14.324;2023-03-03T05:34:22;21.75;;;7.30;;
27939;SDS011;15275;51.716;14.324;2023-03-03T05:36:48;19.67;;;7.18;;
27939;SDS011;15275;51.716;14.324;2023-03-03T05:39:14;19.10;;;6.85;;
27939;SDS011;15275;51.716;14.324;2023-03-03T05:41:40;18.88;;;6.95;;
27939;SDS011;15275;51.716;14.324;2023-03-03T05:44:06;21.98;;;7.38;;
27939;SDS011;15275;51.716;14.324;2023-03-03T05:46:32;21.35;;;7.22;;
27939;SDS011;15275;51.716;14.324;2023-03-03T05:48:58;22.17;;;7.40;;
27939;SDS011;15275;51.716;14.324;2023-03-03T05:51:24;27.60;;;7.88;;
27939;SDS011;15275;51.716;14.324;2023-03-03T05:53:50;16.50;;;6.95;;
27939;SDS011;15275;51.716;14.324;2023-03-03T05:56:15;18.63;;;6.93;;
27939;SDS011;15275;51.716;14.324;2023-03-03T05:58:41;24.05;;;6.97;;
27939;SDS011;15275;51.716;14.324;2023-03-03T06:01:07;19.05;;;6.80;;
27939;SDS011;15275;51.716;14.324;2023-03-03T06:03:33;21.77;;;7.20;;
27939;SDS011;15275;51.716;14.324;2023-03-03T06:05:59;24.15;;;7.00;;
27939;SDS011;15275;51.716;14.324;2023-03-03T06:08:25;22.73;;;7.60;;
27939;SDS011;15275;51.716;14.324;2023-03-03T06:10:51;19.45;;;7.40;;
27939;SDS011;15275;51.716;14.324;2023-03-03T06:13:17;22.95;;;7.20;;
27939;SDS011;15275;51.716;14.324;2023-03-03T06:15:43;18.02;;;6.18;;
27939;SDS011;15275;51.716;14.324;2023-03-03T06:18:09;19.05;;;6.63;;
27939;SDS011;15275;51.716;14.324;2023-03-03T06:20:35;18.63;;;6.60;;
27939;SDS011;15275;51.716;14.324;2023-03-03T06:23:03;17.40;;;6.68;;
27939;SDS011;15275;51.716;14.324;2023-03-03T06:25:29;16.75;;;5.80;;
27939;SDS011;15275;51.716;14.324;2023-03-03T06:27:55;15.00;;;6.20;;
27939;SDS011;15275;51.716;14.324;2023-03-03T06:30:22;13.52;;;5.20;;
27939;SDS011;15275;51.716;14.324;2023-03-03T06:32:47;18.67;;;6.53;;
27939;SDS011;15275;51.716;14.324;2023-03-03T06:35:13;16.77;;;5.85;;
27939;SDS011;15275;51.716;14.324;2023-03-03T06:37:39;16.50;;;5.90;;
27939;SDS011;15275;51.716;14.324;2023-03-03T06:40:05;15.20;;;6.43;;
27939;SDS011;15275;51.716;14.324;2023-03-03T06:42:32;14.68;;;6.57;;
27939;SDS011;15275;51.716;14.324;2023-03-03T06:44:57;16.75;;;6.43;;
27939;SDS011;15275;51.716;14.324;2023-03-03T06:47:23;20.23;;;7.80;;
27939;SDS011;15275;51.716;14.324;2023-03-03T06:49:49;19.20;;;6.97;;
27939;SDS011;15275;51.716;14.324;2023-03-03T06:52:22;17.90;;;6.68;;
27939;SDS011;15275;51.716;14.324;2023-03-03T06:54:54;16.23;;;6.57;;
27939;SDS011;15275;51.716;14.324;2023-03-03T06:59:58;15.88;;;5.57;;
27939;SDS011;15275;51.716;14.324;2023-03-03T07:02:40;17.20;;;6.65;;
27939;SDS011;15275;51.716;14.324;2023-03-03T07:07:41;18.67;;;6.80;;
27939;SDS011;15275;51.716;14.324;2023-03-03T07:10:22;19.45;;;6.57;;
27939;SDS011;15275;51.716;14.324;2023-03-03T07:12:50;20.05;;;7.20;;
27939;SDS011;15275;51.716;14.324;2023-03-03T07:15:21;20.85;;;7.22;;
27939;SDS011;15275;51.716;14.324;2023-03-03T07:17:55;25.70;;;8.18;;
27939;SDS011;15275;51.716;14.324;2023-03-03T07:22:59;19.95;;;8.15;;
27939;SDS011;15275;51.716;14.324;2023-03-03T07:25:55;18.95;;;7.07;;
27939;SDS011;15275;51.716;14.324;2023-03-03T07:30:48;22.27;;;8.25;;
27939;SDS011;15275;51.716;14.324;2023-03-03T07:33:34;21.45;;;7.75;;
27939;SDS011;15275;51.716;14.324;2023-03-03T07:36:17;19.80;;;7.30;;
27939;SDS011;15275;51.716;14.324;2023-03-03T07:38:54;22.53;;;8.17;;
27939;SDS011;15275;51.716;14.324;2023-03-03T07:41:29;24.27;;;8.40;;
27939;SDS011;15275;51.716;14.324;2023-03-03T07:44:05;20.45;;;7.70;;
27939;SDS011;15275;51.716;14.324;2023-03-03T07:46:47;27.30;;;8.52;;
27939;SDS011;15275;51.716;14.324;2023-03-03T07:49:22;22.05;;;7.90;;
27939;SDS011;15275;51.716;14.324;2023-03-03T07:51:59;26.45;;;9.80;;
27939;SDS011;15275;51.716;14.324;2023-03-03T07:57:11;26.25;;;9.55;;
27939;SDS011;15275;51.716;14.324;2023-03-03T07:59:47;26.48;;;10.25;;
27939;SDS011;15275;51.716;14.324;2023-03-03T08:02:54;28.10;;;9.98;;
27939;SDS011;15275;51.716;14.324;2023-03-03T08:18:52;24.90;;;9.02;;
27939;SDS011;15275;51.716;14.324;2023-03-03T08:21:20;26.27;;;9.85;;
27939;SDS011;15275;51.716;14.324;2023-03-03T08:23:50;27.50;;;9.85;;
27939;SDS011;15275;51.716;14.324;2023-03-03T08:26:21;22.98;;;9.05;;
27939;SDS011;15275;51.716;14.324;2023-03-03T08:28:48;34.33;;;10.95;;
27939;SDS011;15275;51.716;14.324;2023-03-03T08:31:15;26.42;;;10.27;;
27939;SDS011;15275;51.716;14.324;2023-03-03T08:33:41;28.63;;;10.77;;
27939;SDS011;15275;51.716;14.324;2023-03-03T08:36:09;33.20;;;11.35;;
27939;SDS011;15275;51.716;14.324;2023-03-03T08:38:36;29.55;;;10.48;;
27939;SDS011;15275;51.716;14.324;2023-03-03T08:41:03;25.45;;;9.30;;
27939;SDS011;15275;51.716;14.324;2023-03-03T08:43:29;22.70;;;9.57;;
27939;SDS011;15275;51.716;14.324;2023-03-03T08:45:57;29.73;;;9.93;;
27939;SDS011;15275;51.716;14.324;2023-03-03T08:48:27;24.67;;;10.07;;
27939;SDS011;15275;51.716;14.324;2023-03-03T08:50:53;27.55;;;10.82;;
27939;SDS011;15275;51.716;14.324;2023-03-03T08:53:20;22.42;;;8.38;;
27939;SDS011;15275;51.716;14.324;2023-03-03T08:55:47;24.30;;;10.25;;
27939;SDS011;15275;51.716;14.324;2023-03-03T08:58:14;23.73;;;9.77;;
27939;SDS011;15275;51.716;14.324;2023-03-03T09:00:41;24.55;;;10.57;;
27939;SDS011;15275;51.716;14.324;2023-03-03T09:03:07;20.33;;;9.27;;
27939;SDS011;15275;51.716;14.324;2023-03-03T09:05:34;23.83;;;9.40;;
27939;SDS011;15275;51.716;14.324;2023-03-03T09:08:02;20.02;;;8.00;;
27939;SDS011;15275;51.716;14.324;2023-03-03T09:10:29;21.08;;;8.07;;
27939;SDS011;15275;51.716;14.324;2023-03-03T09:13:01;16.13;;;7.15;;
27939;SDS011;15275;51.716;14.324;2023-03-03T09:15:38;14.27;;;6.57;;
27939;SDS011;15275;51.716;14.324;2023-03-03T09:20:39;11.65;;;5.80;;
27939;SDS011;15275;51.716;14.324;2023-03-03T09:26:19;13.40;;;6.30;;
27939;SDS011;15275;51.716;14.324;2023-03-03T09:29:32;14.60;;;5.90;;
27939;SDS011;15275;51.716;14.324;2023-03-03T09:32:09;11.52;;;5.15;;
27939;SDS011;15275;51.716;14.324;2023-03-03T09:34:56;10.98;;;5.15;;
27939;SDS011;15275;51.716;14.324;2023-03-03T09:37:26;11.05;;;4.95;;
27939;SDS011;15275;51.716;14.324;2023-03-03T09:39:58;11.15;;;5.32;;
27939;SDS011;15275;51.716;14.324;2023-03-03T09:42:40;10.90;;;4.95;;
27939;SDS011;15275;51.716;14.324;2023-03-03T09:50:43;11.32;;;5.60;;
27939;SDS011;15275;51.716;14.324;2023-03-03T09:53:59;9.60;;;4.78;;
27939;SDS011;15275;51.716;14.324;2023-03-03T09:56:38;9.68;;;4.70;;
27939;SDS011;15275;51.716;14.324;2023-03-03T10:14:14;11.00;;;5.38;;
27939;SDS011;15275;51.716;14.324;2023-03-03T10:22:56;9.77;;;5.00;;
27939;SDS011;15275;51.716;14.324;2023-03-03T10:37:57;9.25;;;5.22;;
27939;SDS011;15275;51.716;14.324;2023-03-03T10:47:38;10.02;;;4.85;;
27939;SDS011;15275;51.716;14.324;2023-03-03T10:56:07;10.93;;;5.60;;
27939;SDS011;15275;51.716;14.324;2023-03-03T10:59:02;11.70;;;6.10;;
27939;SDS011;15275;51.716;14.324;2023-03-03T11:01:57;10.57;;;5.03;;
27939;SDS011;15275;51.716;14.324;2023-03-03T11:07:34;9.80;;;5.05;;
27939;SDS011;15275;51.716;14.324;2023-03-03T11:13:15;10.55;;;5.53;;
27939;SDS011;15275;51.716;14.324;2023-03-03T11:18:51;10.75;;;5.90;;
27939;SDS011;15275;51.716;14.324;2023-03-03T11:22:05;10.65;;;5.57;;
27939;SDS011;15275;51.716;14.324;2023-03-03T11:33:20;11.50;;;6.40;;
27939;SDS011;15275;51.716;14.324;2023-03-03T11:41:29;12.95;;;6.32;;
27939;SDS011;15275;51.716;14.324;2023-03-03T11:46:59;14.32;;;8.05;;
27939;SDS011;15275;51.716;14.324;2023-03-03T11:50:15;15.05;;;7.15;;
27939;SDS011;15275;51.716;14.324;2023-03-03T12:00:43;13.48;;;7.35;;
27939;SDS011;15275;51.716;14.324;2023-03-03T12:03:33;13.45;;;7.22;;
27939;SDS011;15275;51.716;14.324;2023-03-03T12:06:28;13.45;;;7.88;;
27939;SDS011;15275;51.716;14.324;2023-03-03T12:12:26;13.90;;;7.40;;
27939;SDS011;15275;51.716;14.324;2023-03-03T12:15:03;14.90;;;7.97;;
27939;SDS011;15275;51.716;14.324;2023-03-03T12:32:16;18.58;;;9.75;;
27939;SDS011;15275;51.716;14.324;2023-03-03T12:37:53;14.68;;;8.52;;
27939;SDS011;15275;51.716;14.324;2023-03-03T12:43:45;14.95;;;8.50;;
27939;SDS011;15275;51.716;14.324;2023-03-03T12:46:58;15.73;;;7.78;;
27939;SDS011;15275;51.716;14.324;2023-03-03T12:50:19;16.63;;;8.90;;
27939;SDS011;15275;51.716;14.324;2023-03-03T12:52:41;17.05;;;8.60;;
27939;SDS011;15275;51.716;14.324;2023-03-03T12:58:12;16.80;;;8.70;;
27939;SDS011;15275;51.716;14.324;2023-03-03T13:04:13;15.20;;;8.57;;
27939;SDS011;15275;51.716;14.324;2023-03-03T13:15:24;21.85;;;8.70;;
27939;SDS011;15275;51.716;14.324;2023-03-03T13:18:05;16.60;;;8.77;;
27939;SDS011;15275;51.716;14.324;2023-03-03T13:20:48;16.45;;;8.80;;
27939;SDS011;15275;51.716;14.324;2023-03-03T13:26:17;18.02;;;9.20;;
27939;SDS011;15275;51.716;14.324;2023-03-03T13:32:16;16.70;;;9.63;;
27939;SDS011;15275;51.716;14.324;2023-03-03T13:38:00;18.35;;;9.38;;
27939;SDS011;15275;51.716;14.324;2023-03-03T13:40:22;20.13;;;10.05;;
27939;SDS011;15275;51.716;14.324;2023-03-03T13:43:07;19.80;;;9.85;;
27939;SDS011;15275;51.716;14.324;2023-03-03T13:46:23;22.65;;;10.10;;
27939;SDS011;15275;51.716;14.324;2023-03-03T13:52:09;19.88;;;9.55;;
27939;SDS011;15275;51.716;14.324;2023-03-03T13:54:48;26.30;;;11.32;;
27939;SDS011;15275;51.716;14.324;2023-03-03T14:06:16;23.55;;;11.60;;
27939;SDS011;15275;51.716;14.324;2023-03-03T14:11:53;19.50;;;10.23;;
27939;SDS011;15275;51.716;14.324;2023-03-03T14:20:37;20.10;;;8.93;;
27939;SDS011;15275;51.716;14.324;2023-03-03T14:23:24;19.63;;;8.88;;
27939;SDS011;15275;51.716;14.324;2023-03-03T14:26:16;21.75;;;9.77;;
27939;SDS011;15275;51.716;14.324;2023-03-03T14:28:43;20.52;;;9.73;;
27939;SDS011;15275;51.716;14.324;2023-03-03T14:34:01;20.90;;;10.77;;
27939;SDS011;15275;51.716;14.324;2023-03-03T14:36:50;26.45;;;11.52;;
27939;SDS011;15275;51.716;14.324;2023-03-03T14:42:46;24.52;;;11.10;;
27939;SDS011;15275;51.716;14.324;2023-03-03T14:44:58;24.40;;;12.07;;
27939;SDS011;15275;51.716;14.324;2023-03-03T14:47:28;25.92;;;12.73;;
27939;SDS011;15275;51.716;14.324;2023-03-03T14:49:55;23.88;;;11.15;;
27939;SDS011;15275;51.716;14.324;2023-03-03T14:52:32;26.23;;;11.30;;
27939;SDS011;15275;51.716;14.324;2023-03-03T14:54:59;23.25;;;10.55;;
27939;SDS011;15275;51.716;14.324;2023-03-03T15:00:08;17.00;;;8.48;;
27939;SDS011;15275;51.716;14.324;2023-03-03T15:05:49;19.92;;;8.93;;
27939;SDS011;15275;51.716;14.324;2023-03-03T15:08:23;19.88;;;10.07;;
27939;SDS011;15275;51.716;14.324;2023-03-03T15:11:10;23.20;;;10.15;;
27939;SDS011;15275;51.716;14.324;2023-03-03T15:14:09;22.75;;;10.43;;
27939;SDS011;15275;51.716;14.324;2023-03-03T15:16:39;20.33;;;10.35;;
27939;SDS011;15275;51.716;14.324;2023-03-03T15:19:13;20.77;;;10.65;;
27939;SDS011;15275;51.716;14.324;2023-03-03T15:25:13;23.17;;;10.02;;
27939;SDS011;15275;51.716;14.324;2023-03-03T15:36:24;21.40;;;10.55;;
27939;SDS011;15275;51.716;14.324;2023-03-03T15:39:17;25.17;;;11.48;;
27939;SDS011;15275;51.716;14.324;2023-03-03T15:42:14;23.88;;;10.68;;
27939;SDS011;15275;51.716;14.324;2023-03-03T15:54:08;22.40;;;9.68;;
27939;SDS011;15275;51.716;14.324;2023-03-03T15:57:36;21.50;;;9.63;;
27939;SDS011;15275;51.716;14.324;2023-03-03T16:03:23;23.55;;;10.98;;
27939;SDS011;15275;51.716;14.324;2023-03-03T16:06:02;21.42;;;10.13;;
27939;SDS011;15275;51.716;14.324;2023-03-03T16:08:41;23.00;;;11.35;;
27939;SDS011;15275;51.716;14.324;2023-03-03T16:11:43;26.52;;;11.40;;
27939;SDS011;15275;51.716;14.324;2023-03-03T16:14:47;25.52;;;11.75;;
27939;SDS011;15275;51.716;14.324;2023-03-03T16:17:37;23.33;;;11.85;;
27939;SDS011;15275;51.716;14.324;2023-03-03T16:20:17;20.58;;;10.00;;
27939;SDS011;15275;51.716;14.324;2023-03-03T16:32:00;20.35;;;9.07;;
27939;SDS011;15275;51.716;14.324;2023-03-03T16:45:50;20.83;;;9.77;;
27939;SDS011;15275;51.716;14.324;2023-03-03T16:48:38;18.55;;;8.40;;
27939;SDS011;15275;51.716;14.324;2023-03-03T17:00:04;17.58;;;8.07;;
27939;SDS011;15275;51.716;14.324;2023-03-03T17:06:20;19.35;;;8.50;;
27939;SDS011;15275;51.716;14.324;2023-03-03T17:11:56;16.10;;;7.68;;
27939;SDS011;15275;51.716;14.324;2023-03-03T17:34:36;19.13;;;8.30;;
27939;SDS011;15275;51.716;14.324;2023-03-03T17:38:00;19.42;;;8.10;;
27939;SDS011;15275;51.716;14.324;2023-03-03T17:45:49;22.65;;;7.95;;
27939;SDS011;15275;51.716;14.324;2023-03-03T18:02:45;16.60;;;7.80;;
27939;SDS011;15275;51.716;14.324;2023-03-03T18:11:18;16.02;;;7.45;;
27939;SDS011;15275;51.716;14.324;2023-03-03T18:19:21;18.70;;;8.10;;
27939;SDS011;15275;51.716;14.324;2023-03-03T18:25:01;15.85;;;7.65;;
27939;SDS011;15275;51.716;14.324;2023-03-03T18:27:34;16.15;;;8.20;;
27939;SDS011;15275;51.716;14.324;2023-03-03T18:54:19;18.88;;;7.57;;
27939;SDS011;15275;51.716;14.324;2023-03-03T19:04:54;15.88;;;8.40;;
27939;SDS011;15275;51.716;14.324;2023-03-03T19:17:57;15.90;;;7.85;;
27939;SDS011;15275;51.716;14.324;2023-03-03T19:20:56;15.02;;;7.25;;
27939;SDS011;15275;51.716;14.324;2023-03-03T19:32:18;17.35;;;7.65;;
27939;SDS011;15275;51.716;14.324;2023-03-03T19:44:26;15.65;;;7.80;;
27939;SDS011;15275;51.716;14.324;2023-03-03T20:02:29;17.27;;;7.55;;
27939;SDS011;15275;51.716;14.324;2023-03-03T20:05:30;16.95;;;7.28;;
27939;SDS011;15275;51.716;14.324;2023-03-03T20:10:51;14.60;;;8.27;;
27939;SDS011;15275;51.716;14.324;2023-03-03T20:16:35;17.05;;;7.70;;
27939;SDS011;15275;51.716;14.324;2023-03-03T20:22:30;14.82;;;6.28;;
27939;SDS011;15275;51.716;14.324;2023-03-03T20:25:28;16.75;;;7.10;;
27939;SDS011;15275;51.716;14.324;2023-03-03T20:28:25;20.17;;;8.88;;
27939;SDS011;15275;51.716;14.324;2023-03-03T20:44:51;19.13;;;8.55;;
27939;SDS011;15275;51.716;14.324;2023-03-03T20:50:16;17.75;;;8.25;;
27939;SDS011;15275;51.716;14.324;2023-03-03T21:07:54;17.75;;;7.25;;
27939;SDS011;15275;51.716;14.324;2023-03-03T21:10:22;14.00;;;7.57;;
27939;SDS011;15275;51.716;14.324;2023-03-03T21:16:46;22.55;;;9.80;;
27939;SDS011;15275;51.716;14.324;2023-03-03T21:21:39;20.58;;;9.02;;
27939;SDS011;15275;51.716;14.324;2023-03-03T21:24:10;16.80;;;8.20;;
27939;SDS011;15275;51.716;14.324;2023-03-03T21:31:56;19.17;;;9.02;;
27939;SDS011;15275;51.716;14.324;2023-03-03T21:37:06;15.93;;;8.02;;
27939;SDS011;15275;51.716;14.324;2023-03-03T21:39:38;20.02;;;8.77;;
27939;SDS011;15275;51.716;14.324;2023-03-03T21:42:08;16.00;;;6.63;;
27939;SDS011;15275;51.716;14.324;2023-03-03T21:44:41;23.92;;;10.02;;
27939;SDS011;15275;51.716;14.324;2023-03-03T21:47:17;22.55;;;9.73;;
27939;SDS011;15275;51.716;14.324;2023-03-03T21:49:48;18.60;;;8.68;;
27939;SDS011;15275;51.716;14.324;2023-03-03T21:52:16;19.42;;;9.45;;
27939;SDS011;15275;51.716;14.324;2023-03-03T21:54:45;22.02;;;10.50;;
27939;SDS011;15275;51.716;14.324;2023-03-03T21:57:12;19.70;;;9.68;;
27939;SDS011;15275;51.716;14.324;2023-03-03T21:59:38;21.73;;;10.65;;
27939;SDS011;15275;51.716;14.324;2023-03-03T22:02:05;20.60;;;9.80;;
27939;SDS011;15275;51.716;14.324;2023-03-03T22:04:32;20.10;;;9.63;;
27939;SDS011;15275;51.716;14.324;2023-03-03T22:06:58;20.63;;;9.88;;
27939;SDS011;15275;51.716;14.324;2023-03-03T22:09:24;18.50;;;8.95;;
27939;SDS011;15275;51.716;14.324;2023-03-03T22:11:50;19.02;;;8.93;;
27939;SDS011;15275;51.716;14.324;2023-03-03T22:14:16;21.15;;;10.50;;
27939;SDS011;15275;51.716;14.324;2023-03-03T22:16:42;20.38;;;9.48;;
27939;SDS011;15275;51.716;14.324;2023-03-03T22:19:09;16.80;;;8.80;;
27939;SDS011;15275;51.716;14.324;2023-03-03T22:21:35;18.38;;;8.75;;
27939;SDS011;15275;51.716;14.324;2023-03-03T22:24:03;19.33;;;8.48;;
27939;SDS011;15275;51.716;14.324;2023-03-03T22:26:30;18.10;;;9.57;;
27939;SDS011;15275;51.716;14.324;2023-03-03T22:28:57;19.50;;;9.45;;
27939;SDS011;15275;51.716;14.324;2023-03-03T22:31:22;23.63;;;11.02;;
27939;SDS011;15275;51.716;14.324;2023-03-03T22:33:48;24.08;;;10.50;;
27939;SDS011;15275;51.716;14.324;2023-03-03T22:36:14;21.60;;;9.70;;
27939;SDS011;15275;51.716;14.324;2023-03-03T22:38:43;21.80;;;10.20;;
27939;SDS011;15275;51.716;14.324;2023-03-03T22:41:10;27.45;;;11.15;;
27939;SDS011;15275;51.716;14.324;2023-03-03T22:43:36;19.88;;;10.27;;
27939;SDS011;15275;51.716;14.324;2023-03-03T22:46:02;26.73;;;12.02;;
27939;SDS011;15275;51.716;14.324;2023-03-03T22:48:28;23.52;;;10.80;;